sensor_id;sensor_type;location;lat;lon;timestamp;pressure;altitude;pressure_sealevel;temperature;humidity
41230;BME280;26964;50.428;19.218;2023-02-13T00:02:29;1039.6;;;0.6;80.9
41230;BME280;26964;50.428;19.218;2023-02-13T00:07:28;1039.6;;;0.6;81.0
41230;BME280;26964;50.428;19.218;2023-02-13T00:12:29;1039.6;;;0.6;80.9
41230;BME280;26964;50.428;19.218;2023-02-13T00:17:28;1039.6;;;0.6;80.9
41230;BME280;26964;50.428;19.218;2023-02-13T00:22:28;1039.6;;;0.6;81.0
41230;BME280;26964;50.428;19.218;2023-02-13T00:27:28;1039.7;;;0.7;81.1
41230;BME280;26964;50.428;19.218;2023-02-13T00:32:28;1039.6;;;0.7;81.0
41230;BME280;26964;50.428;19.218;2023-02-13T00:37:28;1039.6;;;0.7;81.0
41230;BME280;26964;50.428;19.218;2023-02-13T00:42:28;1039.5;;;0.7;81.1
41230;BME280;26964;50.428;19.218;2023-02-13T00:47:28;1039.5;;;0.7;81.2
41230;BME280;26964;50.428;19.218;2023-02-13T00:52:28;1039.4;;;0.7;81.2
41230;BME280;26964;50.428;19.218;2023-02-13T00:57:28;1039.4;;;0.8;81.2
41230;BME280;26964;50.428;19.218;2023-02-13T01:02:28;1039.3;;;0.8;81.2
41230;BME280;26964;50.428;19.218;2023-02-13T01:07:28;1039.3;;;0.8;81.2
41230;BME280;26964;50.428;19.218;2023-02-13T01:12:28;1039.4;;;0.8;81.3
41230;BME280;26964;50.428;19.218;2023-02-13T01:17:28;1039.3;;;0.8;81.3
41230;BME280;26964;50.428;19.218;2023-02-13T01:22:28;1039.3;;;0.8;81.4
41230;BME280;26964;50.428;19.218;2023-02-13T01:27:29;1039.2;;;0.8;81.4
41230;BME280;26964;50.428;19.218;2023-02-13T01:32:28;1039.1;;;0.8;81.5
41230;BME280;26964;50.428;19.218;2023-02-13T01:37:28;1039.2;;;0.9;81.5
41230;BME280;26964;50.428;19.218;2023-02-13T01:42:30;1039.1;;;0.9;81.5
41230;BME280;26964;50.428;19.218;2023-02-13T01:47:34;1039.0;;;0.9;81.5
41230;BME280;26964;50.428;19.218;2023-02-13T01:52:28;1038.9;;;0.9;81.6
41230;BME280;26964;50.428;19.218;2023-02-13T01:57:29;1038.9;;;0.9;81.6
41230;BME280;26964;50.428;19.218;2023-02-13T02:02:30;1038.9;;;1.0;81.6
41230;BME280;26964;50.428;19.218;2023-02-13T02:07:29;1038.9;;;1.0;81.7
41230;BME280;26964;50.428;19.218;2023-02-13T02:12:33;1039.1;;;1.0;81.7
41230;BME280;26964;50.428;19.218;2023-02-13T02:17:29;1039.0;;;1.0;81.8
41230;BME280;26964;50.428;19.218;2023-02-13T02:42:33;1038.8;;;1.1;81.9
41230;BME280;26964;50.428;19.218;2023-02-13T02:47:32;1038.8;;;1.1;81.9
41230;BME280;26964;50.428;19.218;2023-02-13T02:57:30;1038.8;;;1.1;82.0
41230;BME280;26964;50.428;19.218;2023-02-13T03:02:29;1038.9;;;1.1;82.0
41230;BME280;26964;50.428;19.218;2023-02-13T03:07:28;1038.9;;;1.1;82.0
41230;BME280;26964;50.428;19.218;2023-02-13T03:12:34;1038.9;;;1.1;82.0
41230;BME280;26964;50.428;19.218;2023-02-13T03:17:28;1038.8;;;1.1;82.1
41230;BME280;26964;50.428;19.218;2023-02-13T03:22:35;1038.8;;;1.2;82.1
41230;BME280;26964;50.428;19.218;2023-02-13T03:27:33;1038.8;;;1.2;82.2
41230;BME280;26964;50.428;19.218;2023-02-13T03:32:33;1038.9;;;1.2;82.2
41230;BME280;26964;50.428;19.218;2023-02-13T03:37:33;1038.9;;;1.2;82.2
41230;BME280;26964;50.428;19.218;2023-02-13T03:42:32;1038.8;;;1.2;82.3
41230;BME280;26964;50.428;19.218;2023-02-13T03:47:28;1038.9;;;1.3;82.3
41230;BME280;26964;50.428;19.218;2023-02-13T03:52:31;1038.9;;;1.3;82.4
41230;BME280;26964;50.428;19.218;2023-02-13T03:57:32;1038.8;;;1.3;82.4
41230;BME280;26964;50.428;19.218;2023-02-13T04:02:32;1038.9;;;1.3;82.4
41230;BME280;26964;50.428;19.218;2023-02-13T04:07:28;1038.9;;;1.4;82.5
41230;BME280;26964;50.428;19.218;2023-02-13T04:17:31;1038.8;;;1.4;82.6
41230;BME280;26964;50.428;19.218;2023-02-13T04:22:28;1038.9;;;1.4;82.6
41230;BME280;26964;50.428;19.218;2023-02-13T04:27:28;1038.8;;;1.4;82.6
41230;BME280;26964;50.428;19.218;2023-02-13T04:32:28;1038.8;;;1.4;82.6
41230;BME280;26964;50.428;19.218;2023-02-13T04:37:28;1038.9;;;1.4;82.6
41230;BME280;26964;50.428;19.218;2023-02-13T04:42:28;1038.9;;;1.4;82.6
41230;BME280;26964;50.428;19.218;2023-02-13T04:47:28;1038.8;;;1.4;82.6
41230;BME280;26964;50.428;19.218;2023-02-13T04:52:28;1038.9;;;1.4;82.6
41230;BME280;26964;50.428;19.218;2023-02-13T04:57:28;1038.9;;;1.4;82.6
41230;BME280;26964;50.428;19.218;2023-02-13T05:02:28;1038.9;;;1.5;82.6
41230;BME280;26964;50.428;19.218;2023-02-13T05:07:28;1038.9;;;1.5;82.7
41230;BME280;26964;50.428;19.218;2023-02-13T05:12:28;1038.8;;;1.5;82.7
41230;BME280;26964;50.428;19.218;2023-02-13T05:17:28;1038.7;;;1.5;82.7
41230;BME280;26964;50.428;19.218;2023-02-13T05:22:27;1038.7;;;1.5;82.8
41230;BME280;26964;50.428;19.218;2023-02-13T05:27:28;1038.7;;;1.5;82.8
41230;BME280;26964;50.428;19.218;2023-02-13T05:32:28;1038.8;;;1.5;82.8
41230;BME280;26964;50.428;19.218;2023-02-13T05:37:28;1038.8;;;1.5;82.9
41230;BME280;26964;50.428;19.218;2023-02-13T05:42:28;1038.8;;;1.5;83.0
41230;BME280;26964;50.428;19.218;2023-02-13T05:47:28;1038.9;;;1.6;83.0
41230;BME280;26964;50.428;19.218;2023-02-13T05:52:28;1038.8;;;1.6;83.0
41230;BME280;26964;50.428;19.218;2023-02-13T05:57:28;1038.8;;;1.6;83.0
41230;BME280;26964;50.428;19.218;2023-02-13T06:02:28;1038.8;;;1.6;83.1
41230;BME280;26964;50.428;19.218;2023-02-13T06:07:28;1038.8;;;1.7;83.1
41230;BME280;26964;50.428;19.218;2023-02-13T06:12:28;1038.9;;;1.7;83.1
41230;BME280;26964;50.428;19.218;2023-02-13T06:17:28;1039.0;;;1.7;83.0
41230;BME280;26964;50.428;19.218;2023-02-13T06:22:28;1039.1;;;1.7;83.0
41230;BME280;26964;50.428;19.218;2023-02-13T06:27:28;1039.0;;;1.7;83.1
41230;BME280;26964;50.428;19.218;2023-02-13T06:32:28;1039.1;;;1.7;83.1
41230;BME280;26964;50.428;19.218;2023-02-13T06:37:27;1039.0;;;1.7;83.1
41230;BME280;26964;50.428;19.218;2023-02-13T06:42:28;1039.1;;;1.7;83.1
41230;BME280;26964;50.428;19.218;2023-02-13T06:47:27;1039.0;;;1.7;83.0
41230;BME280;26964;50.428;19.218;2023-02-13T06:52:27;1039.1;;;1.7;83.1
41230;BME280;26964;50.428;19.218;2023-02-13T06:57:28;1039.2;;;1.7;83.1
41230;BME280;26964;50.428;19.218;2023-02-13T07:02:28;1039.1;;;1.8;83.1
41230;BME280;26964;50.428;19.218;2023-02-13T07:12:28;1039.1;;;1.9;83.2
41230;BME280;26964;50.428;19.218;2023-02-13T07:17:27;1039.2;;;1.9;83.3
41230;BME280;26964;50.428;19.218;2023-02-13T07:22:29;1039.1;;;2.0;83.3
41230;BME280;26964;50.428;19.218;2023-02-13T07:27:28;1039.1;;;2.0;83.3
41230;BME280;26964;50.428;19.218;2023-02-13T07:32:27;1039.1;;;2.1;83.3
41230;BME280;26964;50.428;19.218;2023-02-13T07:37:28;1039.1;;;2.1;83.3
41230;BME280;26964;50.428;19.218;2023-02-13T07:42:28;1039.1;;;2.2;83.3
41230;BME280;26964;50.428;19.218;2023-02-13T07:47:28;1039.0;;;2.2;83.4
41230;BME280;26964;50.428;19.218;2023-02-13T07:52:28;1038.9;;;2.3;83.4
41230;BME280;26964;50.428;19.218;2023-02-13T07:57:28;1039.0;;;2.4;83.5
41230;BME280;26964;50.428;19.218;2023-02-13T08:02:27;1038.9;;;2.4;83.5
41230;BME280;26964;50.428;19.218;2023-02-13T08:07:28;1038.9;;;2.5;83.5
41230;BME280;26964;50.428;19.218;2023-02-13T08:12:28;1039.0;;;2.5;83.5
41230;BME280;26964;50.428;19.218;2023-02-13T08:17:27;1039.0;;;2.5;83.6
41230;BME280;26964;50.428;19.218;2023-02-13T08:22:28;1039.0;;;2.5;83.5
41230;BME280;26964;50.428;19.218;2023-02-13T08:27:27;1039.0;;;2.6;83.5
41230;BME280;26964;50.428;19.218;2023-02-13T08:32:27;1039.0;;;2.7;83.6
41230;BME280;26964;50.428;19.218;2023-02-13T08:37:28;1039.0;;;2.7;83.7
41230;BME280;26964;50.428;19.218;2023-02-13T08:42:27;1039.1;;;2.8;83.7
41230;BME280;26964;50.428;19.218;2023-02-13T08:47:27;1039.1;;;2.8;83.7
41230;BME280;26964;50.428;19.218;2023-02-13T08:52:28;1039.1;;;2.9;83.8
41230;BME280;26964;50.428;19.218;2023-02-13T08:57:28;1039.0;;;3.0;83.8
41230;BME280;26964;50.428;19.218;2023-02-13T09:02:27;1039.0;;;3.1;83.8
41230;BME280;26964;50.428;19.218;2023-02-13T09:07:27;1039.0;;;3.2;83.8
41230;BME280;26964;50.428;19.218;2023-02-13T09:12:28;1039.0;;;3.3;83.9
41230;BME280;26964;50.428;19.218;2023-02-13T09:17:27;1039.0;;;3.4;83.8
41230;BME280;26964;50.428;19.218;2023-02-13T09:22:27;1039.0;;;3.4;83.8
41230;BME280;26964;50.428;19.218;2023-02-13T09:27:28;1038.8;;;3.5;83.9
41230;BME280;26964;50.428;19.218;2023-02-13T09:32:27;1038.8;;;3.6;83.9
41230;BME280;26964;50.428;19.218;2023-02-13T09:37:28;1039.0;;;3.6;83.9
41230;BME280;26964;50.428;19.218;2023-02-13T09:42:30;1039.0;;;3.7;83.9
41230;BME280;26964;50.428;19.218;2023-02-13T09:47:29;1039.0;;;3.7;83.8
41230;BME280;26964;50.428;19.218;2023-02-13T09:52:29;1039.0;;;3.7;83.8
41230;BME280;26964;50.428;19.218;2023-02-13T09:57:32;1038.9;;;3.7;83.9
41230;BME280;26964;50.428;19.218;2023-02-13T10:07:33;1038.8;;;3.7;83.9
41230;BME280;26964;50.428;19.218;2023-02-13T10:17:30;1038.8;;;3.7;83.9
41230;BME280;26964;50.428;19.218;2023-02-13T10:22:31;1038.8;;;3.8;83.9
41230;BME280;26964;50.428;19.218;2023-02-13T10:27:31;1038.8;;;3.8;83.9
41230;BME280;26964;50.428;19.218;2023-02-13T10:32:30;1038.5;;;3.9;84.0
41230;BME280;26964;50.428;19.218;2023-02-13T10:37:28;1038.4;;;3.9;84.0
41230;BME280;26964;50.428;19.218;2023-02-13T10:42:31;1038.3;;;3.9;84.0
41230;BME280;26964;50.428;19.218;2023-02-13T10:57:33;1038.4;;;4.0;84.1
41230;BME280;26964;50.428;19.218;2023-02-13T11:02:29;1038.2;;;4.0;84.2
41230;BME280;26964;50.428;19.218;2023-02-13T11:07:28;1038.2;;;4.0;84.2
41230;BME280;26964;50.428;19.218;2023-02-13T11:12:29;1038.1;;;4.1;84.4
41230;BME280;26964;50.428;19.218;2023-02-13T11:17:29;1038.2;;;4.2;84.2
41230;BME280;26964;50.428;19.218;2023-02-13T11:22:30;1038.1;;;4.1;84.2
41230;BME280;26964;50.428;19.218;2023-02-13T11:27:31;1038.1;;;4.2;84.3
41230;BME280;26964;50.428;19.218;2023-02-13T11:32:28;1038.0;;;4.2;84.3
41230;BME280;26964;50.428;19.218;2023-02-13T11:37:28;1037.9;;;4.2;84.3
41230;BME280;26964;50.428;19.218;2023-02-13T11:42:29;1037.9;;;4.3;84.3
41230;BME280;26964;50.428;19.218;2023-02-13T11:47:29;1037.9;;;4.3;84.3
41230;BME280;26964;50.428;19.218;2023-02-13T11:52:28;1038.0;;;4.3;84.3
41230;BME280;26964;50.428;19.218;2023-02-13T11:57:29;1037.9;;;4.3;84.2
41230;BME280;26964;50.428;19.218;2023-02-13T12:02:29;1037.9;;;4.3;84.2
41230;BME280;26964;50.428;19.218;2023-02-13T12:07:29;1037.9;;;4.3;84.2
41230;BME280;26964;50.428;19.218;2023-02-13T12:12:32;1037.8;;;4.2;84.3
41230;BME280;26964;50.428;19.218;2023-02-13T12:17:28;1037.7;;;4.2;84.3
41230;BME280;26964;50.428;19.218;2023-02-13T12:22:30;1037.8;;;4.3;84.4
41230;BME280;26964;50.428;19.218;2023-02-13T12:27:32;1037.8;;;4.3;84.5
41230;BME280;26964;50.428;19.218;2023-02-13T12:32:32;1037.7;;;4.3;84.5
41230;BME280;26964;50.428;19.218;2023-02-13T12:47:28;1037.6;;;4.3;84.4
41230;BME280;26964;50.428;19.218;2023-02-13T13:22:31;1037.6;;;4.1;84.6
41230;BME280;26964;50.428;19.218;2023-02-13T13:27:31;1037.6;;;4.1;84.6
41230;BME280;26964;50.428;19.218;2023-02-13T13:32:28;1037.6;;;4.1;84.7
41230;BME280;26964;50.428;19.218;2023-02-13T13:37:30;1037.6;;;4.2;84.7
41230;BME280;26964;50.428;19.218;2023-02-13T13:42:33;1037.7;;;4.2;84.7
41230;BME280;26964;50.428;19.218;2023-02-13T13:47:35;1037.6;;;4.1;84.7
41230;BME280;26964;50.428;19.218;2023-02-13T13:52:28;1037.8;;;4.1;84.7
41230;BME280;26964;50.428;19.218;2023-02-13T14:07:32;1037.6;;;4.1;84.5
41230;BME280;26964;50.428;19.218;2023-02-13T14:22:32;1037.6;;;4.1;84.5
41230;BME280;26964;50.428;19.218;2023-02-13T14:27:29;1037.4;;;4.0;84.5
41230;BME280;26964;50.428;19.218;2023-02-13T14:32:30;1037.4;;;4.0;84.5
41230;BME280;26964;50.428;19.218;2023-02-13T14:37:32;1037.4;;;3.9;84.5
41230;BME280;26964;50.428;19.218;2023-02-13T14:42:28;1037.4;;;3.8;84.5
41230;BME280;26964;50.428;19.218;2023-02-13T14:47:31;1037.3;;;3.8;84.5
41230;BME280;26964;50.428;19.218;2023-02-13T14:52:32;1037.4;;;3.7;84.5
41230;BME280;26964;50.428;19.218;2023-02-13T14:57:29;1037.3;;;3.7;84.5
41230;BME280;26964;50.428;19.218;2023-02-13T15:02:32;1037.2;;;3.6;84.5
41230;BME280;26964;50.428;19.218;2023-02-13T15:07:29;1037.3;;;3.6;84.6
41230;BME280;26964;50.428;19.218;2023-02-13T15:12:29;1037.2;;;3.5;84.6
41230;BME280;26964;50.428;19.218;2023-02-13T15:17:28;1037.2;;;3.5;84.6
41230;BME280;26964;50.428;19.218;2023-02-13T15:22:31;1037.2;;;3.4;84.5
41230;BME280;26964;50.428;19.218;2023-02-13T15:27:28;1037.3;;;3.3;84.5
41230;BME280;26964;50.428;19.218;2023-02-13T15:32:31;1037.3;;;3.3;84.5
41230;BME280;26964;50.428;19.218;2023-02-13T15:37:28;1037.2;;;3.2;84.5
41230;BME280;26964;50.428;19.218;2023-02-13T15:42:26;1037.2;;;3.2;84.5
41230;BME280;26964;50.428;19.218;2023-02-13T15:47:29;1037.2;;;3.1;84.6
41230;BME280;26964;50.428;19.218;2023-02-13T15:52:30;1037.2;;;3.1;84.6
41230;BME280;26964;50.428;19.218;2023-02-13T15:57:27;1037.2;;;3.0;84.6
41230;BME280;26964;50.428;19.218;2023-02-13T16:02:30;1037.3;;;3.0;84.6
41230;BME280;26964;50.428;19.218;2023-02-13T16:07:26;1037.3;;;2.9;84.6
41230;BME280;26964;50.428;19.218;2023-02-13T16:12:27;1037.3;;;2.9;84.6
41230;BME280;26964;50.428;19.218;2023-02-13T16:17:28;1037.4;;;2.8;84.6
41230;BME280;26964;50.428;19.218;2023-02-13T16:22:31;1037.4;;;2.8;84.6
41230;BME280;26964;50.428;19.218;2023-02-13T16:27:27;1037.4;;;2.8;84.6
41230;BME280;26964;50.428;19.218;2023-02-13T16:32:28;1037.6;;;2.8;84.7
41230;BME280;26964;50.428;19.218;2023-02-13T16:37:28;1037.6;;;2.7;84.7
41230;BME280;26964;50.428;19.218;2023-02-13T16:42:27;1037.5;;;2.7;84.6
41230;BME280;26964;50.428;19.218;2023-02-13T16:47:26;1037.3;;;2.7;84.6
41230;BME280;26964;50.428;19.218;2023-02-13T16:52:27;1037.2;;;2.7;84.6
41230;BME280;26964;50.428;19.218;2023-02-13T16:57:27;1037.1;;;2.6;84.6
41230;BME280;26964;50.428;19.218;2023-02-13T17:02:27;1037.3;;;2.6;84.6
41230;BME280;26964;50.428;19.218;2023-02-13T17:07:28;1037.2;;;2.5;84.6
41230;BME280;26964;50.428;19.218;2023-02-13T17:12:28;1037.0;;;2.5;84.6
41230;BME280;26964;50.428;19.218;2023-02-13T17:17:28;1037.0;;;2.5;84.6
41230;BME280;26964;50.428;19.218;2023-02-13T17:22:31;1036.9;;;2.4;84.5
41230;BME280;26964;50.428;19.218;2023-02-13T17:27:27;1037.0;;;2.4;84.6
41230;BME280;26964;50.428;19.218;2023-02-13T17:32:27;1037.1;;;2.4;84.7
41230;BME280;26964;50.428;19.218;2023-02-13T17:37:27;1036.8;;;2.4;84.7
41230;BME280;26964;50.428;19.218;2023-02-13T17:42:28;1037.0;;;2.4;84.7
41230;BME280;26964;50.428;19.218;2023-02-13T17:47:26;1037.2;;;2.4;84.7
41230;BME280;26964;50.428;19.218;2023-02-13T17:52:26;1037.1;;;2.4;84.7
41230;BME280;26964;50.428;19.218;2023-02-13T17:57:26;1037.1;;;2.4;84.7
41230;BME280;26964;50.428;19.218;2023-02-13T18:02:27;1036.9;;;2.4;84.7
41230;BME280;26964;50.428;19.218;2023-02-13T18:07:27;1036.8;;;2.4;84.7
41230;BME280;26964;50.428;19.218;2023-02-13T18:12:26;1036.7;;;2.3;84.6
41230;BME280;26964;50.428;19.218;2023-02-13T18:17:27;1037.1;;;2.3;84.6
41230;BME280;26964;50.428;19.218;2023-02-13T18:22:27;1037.2;;;2.3;84.6
41230;BME280;26964;50.428;19.218;2023-02-13T18:27:26;1037.0;;;2.3;84.6
41230;BME280;26964;50.428;19.218;2023-02-13T18:32:26;1037.0;;;2.3;84.6
41230;BME280;26964;50.428;19.218;2023-02-13T18:37:27;1037.2;;;2.3;84.6
41230;BME280;26964;50.428;19.218;2023-02-13T18:42:26;1037.3;;;2.3;84.7
41230;BME280;26964;50.428;19.218;2023-02-13T18:47:27;1037.3;;;2.3;84.6
41230;BME280;26964;50.428;19.218;2023-02-13T18:52:26;1037.3;;;2.3;84.5
41230;BME280;26964;50.428;19.218;2023-02-13T18:57:27;1037.4;;;2.3;84.5
41230;BME280;26964;50.428;19.218;2023-02-13T19:02:26;1037.6;;;2.3;84.5
41230;BME280;26964;50.428;19.218;2023-02-13T19:07:26;1037.5;;;2.3;84.5
41230;BME280;26964;50.428;19.218;2023-02-13T19:12:27;1037.5;;;2.3;84.5
41230;BME280;26964;50.428;19.218;2023-02-13T19:17:26;1037.7;;;2.3;84.5
41230;BME280;26964;50.428;19.218;2023-02-13T19:22:26;1037.7;;;2.3;84.5
41230;BME280;26964;50.428;19.218;2023-02-13T19:27:27;1037.7;;;2.3;84.5
41230;BME280;26964;50.428;19.218;2023-02-13T19:32:27;1037.7;;;2.3;84.4
41230;BME280;26964;50.428;19.218;2023-02-13T19:37:26;1037.7;;;2.3;84.5
41230;BME280;26964;50.428;19.218;2023-02-13T19:42:27;1037.6;;;2.3;84.5
41230;BME280;26964;50.428;19.218;2023-02-13T19:47:27;1037.6;;;2.3;84.5
41230;BME280;26964;50.428;19.218;2023-02-13T19:52:26;1037.7;;;2.3;84.5
41230;BME280;26964;50.428;19.218;2023-02-13T19:57:27;1037.8;;;2.3;84.5
41230;BME280;26964;50.428;19.218;2023-02-13T20:02:26;1037.9;;;2.3;84.5
41230;BME280;26964;50.428;19.218;2023-02-13T20:07:27;1038.0;;;2.2;84.5
41230;BME280;26964;50.428;19.218;2023-02-13T20:12:26;1038.1;;;2.2;84.5
41230;BME280;26964;50.428;19.218;2023-02-13T20:17:26;1038.1;;;2.2;84.5
41230;BME280;26964;50.428;19.218;2023-02-13T20:22:26;1038.2;;;2.2;84.5
41230;BME280;26964;50.428;19.218;2023-02-13T20:27:26;1038.2;;;2.2;84.5
41230;BME280;26964;50.428;19.218;2023-02-13T20:32:26;1038.2;;;2.2;84.5
41230;BME280;26964;50.428;19.218;2023-02-13T20:37:27;1038.2;;;2.2;84.5
41230;BME280;26964;50.428;19.218;2023-02-13T20:42:26;1038.1;;;2.2;84.5
41230;BME280;26964;50.428;19.218;2023-02-13T20:47:27;1038.1;;;2.1;84.5
41230;BME280;26964;50.428;19.218;2023-02-13T20:52:26;1038.1;;;2.1;84.5
41230;BME280;26964;50.428;19.218;2023-02-13T20:57:27;1038.1;;;2.1;84.5
41230;BME280;26964;50.428;19.218;2023-02-13T21:02:26;1038.0;;;2.1;84.5
41230;BME280;26964;50.428;19.218;2023-02-13T21:07:26;1038.0;;;2.1;84.5
41230;BME280;26964;50.428;19.218;2023-02-13T21:12:26;1038.0;;;2.1;84.5
41230;BME280;26964;50.428;19.218;2023-02-13T21:17:26;1038.0;;;2.1;84.5
41230;BME280;26964;50.428;19.218;2023-02-13T21:22:26;1038.0;;;2.1;84.5
41230;BME280;26964;50.428;19.218;2023-02-13T21:27:25;1038.0;;;2.0;84.6
41230;BME280;26964;50.428;19.218;2023-02-13T21:32:26;1038.0;;;2.0;84.5
41230;BME280;26964;50.428;19.218;2023-02-13T21:37:25;1037.8;;;2.0;84.6
41230;BME280;26964;50.428;19.218;2023-02-13T21:42:26;1037.9;;;2.0;84.6
41230;BME280;26964;50.428;19.218;2023-02-13T21:47:26;1037.9;;;2.0;84.5
41230;BME280;26964;50.428;19.218;2023-02-13T21:52:26;1037.8;;;2.0;84.6
41230;BME280;26964;50.428;19.218;2023-02-13T21:57:26;1038.0;;;2.0;84.6
41230;BME280;26964;50.428;19.218;2023-02-13T22:02:27;1038.0;;;2.0;84.6
41230;BME280;26964;50.428;19.218;2023-02-13T22:07:26;1037.9;;;2.0;84.7
41230;BME280;26964;50.428;19.218;2023-02-13T22:12:26;1037.9;;;2.0;84.7
41230;BME280;26964;50.428;19.218;2023-02-13T22:17:26;1037.9;;;2.0;84.7
41230;BME280;26964;50.428;19.218;2023-02-13T22:22:26;1037.8;;;2.0;84.8
41230;BME280;26964;50.428;19.218;2023-02-13T22:27:26;1037.9;;;2.0;84.8
41230;BME280;26964;50.428;19.218;2023-02-13T22:32:26;1037.9;;;2.0;84.8
41230;BME280;26964;50.428;19.218;2023-02-13T22:37:26;1037.9;;;2.0;84.8
41230;BME280;26964;50.428;19.218;2023-02-13T22:42:26;1037.8;;;2.0;84.8
41230;BME280;26964;50.428;19.218;2023-02-13T22:47:25;1037.8;;;2.0;84.8
41230;BME280;26964;50.428;19.218;2023-02-13T22:52:26;1037.8;;;2.0;84.8
41230;BME280;26964;50.428;19.218;2023-02-13T22:57:25;1037.8;;;2.0;84.8
41230;BME280;26964;50.428;19.218;2023-02-13T23:02:25;1037.9;;;2.0;84.8
41230;BME280;26964;50.428;19.218;2023-02-13T23:07:26;1037.9;;;2.0;84.8
41230;BME280;26964;50.428;19.218;2023-02-13T23:12:25;1037.8;;;1.9;84.8
41230;BME280;26964;50.428;19.218;2023-02-13T23:17:25;1037.8;;;1.9;84.8
41230;BME280;26964;50.428;19.218;2023-02-13T23:22:26;1037.7;;;1.9;84.9
41230;BME280;26964;50.428;19.218;2023-02-13T23:27:26;1037.7;;;1.9;84.8
41230;BME280;26964;50.428;19.218;2023-02-13T23:32:25;1037.7;;;1.9;84.8
41230;BME280;26964;50.428;19.218;2023-02-13T23:37:26;1037.6;;;1.9;84.8
41230;BME280;26964;50.428;19.218;2023-02-13T23:42:25;1037.7;;;1.9;84.8
41230;BME280;26964;50.428;19.218;2023-02-13T23:47:26;1037.6;;;1.9;84.9
41230;BME280;26964;50.428;19.218;2023-02-13T23:52:25;1037.5;;;1.9;84.9
41230;BME280;26964;50.428;19.218;2023-02-13T23:57:26;1037.6;;;1.9;84.9
